Selkirk, Canada
Current Conditions -  °F | °C
As of 8:00 PM on Saturday 22 Nov 2014 (Local Time) from CYWG Reporting Station
Overcast Overcast  
Wind Chill: 20°   Ceiling: 7900
Heat Index: 28°   Visibility: 15mi
Dew Point: 25°   Wind: 9mph
Humidity: 86%   Direction: 60°ENE
Pressure: 29.42"   Gusts: NA
Location:  50.15°N, 96.87°W
Report Text: CYWG 230200Z 06008KT 15SM SCT012 OVC079 M02/M04 A2942 RMK SC3AC5 PRESFR SLP975
Loading
Personal Weather Stations






























Interactive Weather Map New forecast layout! Learn more

10-Day Weather Forecast

Advertisements
Track Severe Weather on mobile